Time;durP1;ratioP1;P1;durP2;ratioP2;P2;SDS_P1;SDS_P2;PMS_P1;PMS_P2;Temp;Humidity;BMP_temperature;BMP_pressure;BME280_temperature;BME280_humidity;BME280_pressure;Samples;Min_cycle;Max_cycle;Signal;HPM_P1;HPM_P2
2024/01/18 00:04:49;;;;;;;1.60;1.60;;;10.10;99.90;;;;;;10379181;28;20222;-79
2024/01/18 00:09:52;;;;;;;1.17;1.17;;;10.10;99.90;;;;;;10373221;28;20743;-79
2024/01/18 00:14:55;;;;;;;1.50;1.50;;;10.10;99.90;;;;;;10371757;28;20218;-80
2024/01/18 00:19:58;;;;;;;1.20;1.20;;;10.20;99.90;;;;;;10389532;28;20204;-80
2024/01/18 00:25:00;;;;;;;1.40;1.40;;;10.10;99.90;;;;;;10422279;28;20271;-77
2024/01/18 00:30:04;;;;;;;1.30;1.30;;;10.20;99.90;;;;;;10448824;28;20201;-79
2024/01/18 00:35:07;;;;;;;1.20;1.20;;;10.20;99.90;;;;;;10434240;28;20226;-79
2024/01/18 00:40:13;;;;;;;1.20;1.20;;;10.20;99.90;;;;;;10414670;28;20736;-79
2024/01/18 00:45:17;;;;;;;1.20;1.20;;;10.20;99.90;;;;;;10416837;28;20230;-79
2024/01/18 00:50:19;;;;;;;1.00;1.00;;;10.30;99.90;;;;;;10400336;28;20252;-79
2024/01/18 00:55:21;;;;;;;0.90;0.90;;;10.30;99.90;;;;;;10442226;28;20220;-80
2024/01/18 01:00:26;;;;;;;0.97;0.97;;;10.30;99.90;;;;;;10422511;28;20203;-79
2024/01/18 01:05:28;;;;;;;1.10;1.10;;;10.20;99.90;;;;;;10406022;28;20252;-79
2024/01/18 01:10:31;;;;;;;1.00;1.00;;;10.30;99.90;;;;;;10383974;28;20206;-76
2024/01/18 01:15:35;;;;;;;0.93;0.93;;;10.20;99.90;;;;;;10398313;28;20257;-80
2024/01/18 01:20:37;;;;;;;0.90;0.90;;;10.20;99.90;;;;;;10407153;28;20248;-78
2024/01/18 01:25:40;;;;;;;0.90;0.90;;;10.20;99.90;;;;;;10400569;28;20214;-80
2024/01/18 01:30:44;;;;;;;0.97;0.97;;;10.10;99.90;;;;;;10399139;28;20215;-78
2024/01/18 01:35:46;;;;;;;1.00;1.00;;;10.00;99.90;;;;;;10460039;28;20275;-79
2024/01/18 01:40:48;;;;;;;0.90;0.90;;;10.00;99.90;;;;;;10450448;28;20662;-80
2024/01/18 01:45:52;;;;;;;1.00;1.00;;;10.00;99.90;;;;;;10438240;28;20210;-79
2024/01/18 01:50:55;;;;;;;0.90;0.90;;;10.00;99.90;;;;;;10416777;28;20744;-79
2024/01/18 01:55:57;;;;;;;1.00;1.00;;;10.00;99.90;;;;;;10438087;28;20214;-79
2024/01/18 02:01:01;;;;;;;1.10;1.10;;;9.90;99.90;;;;;;10425774;28;20212;-79
2024/01/18 02:06:04;;;;;;;1.07;1.07;;;9.90;99.90;;;;;;10416428;28;20237;-79
2024/01/18 02:11:07;;;;;;;1.20;1.20;;;9.90;99.90;;;;;;10403420;28;20702;-79
2024/01/18 02:16:10;;;;;;;1.00;1.00;;;9.90;99.90;;;;;;10411686;28;20568;-78
2024/01/18 02:21:13;;;;;;;1.20;1.20;;;9.90;99.90;;;;;;10431744;28;20185;-80
2024/01/18 02:26:17;;;;;;;1.00;1.00;;;9.90;99.90;;;;;;10434883;28;20308;-80
2024/01/18 02:31:19;;;;;;;1.03;1.03;;;10.00;99.90;;;;;;10425860;28;20213;-80
2024/01/18 02:36:22;;;;;;;0.90;0.90;;;10.10;99.90;;;;;;10414740;28;20277;-79
2024/01/18 02:41:26;;;;;;;1.03;1.03;;;10.10;99.90;;;;;;10382307;28;20664;-80
2024/01/18 02:46:31;;;;;;;1.20;1.20;;;10.10;99.90;;;;;;10392155;28;20221;-80
2024/01/18 02:51:33;;;;;;;1.50;1.50;;;10.20;99.90;;;;;;10443059;28;20205;-77
2024/01/18 02:56:38;;;;;;;1.50;1.50;;;10.10;99.90;;;;;;10425752;28;20262;-79
2024/01/18 03:01:40;;;;;;;1.50;1.50;;;10.00;99.90;;;;;;10436497;28;20198;-78
2024/01/18 03:06:44;;;;;;;1.60;1.60;;;9.90;99.90;;;;;;10421343;28;20218;-80
2024/01/18 03:11:48;;;;;;;1.63;1.63;;;9.80;99.90;;;;;;10418127;28;20210;-79
2024/01/18 03:16:50;;;;;;;2.00;2.00;;;9.80;99.90;;;;;;10416494;28;20643;-77
2024/01/18 03:21:52;;;;;;;1.90;1.90;;;9.80;99.90;;;;;;10400537;28;20197;-82
2024/01/18 03:26:56;;;;;;;1.90;1.90;;;9.70;99.90;;;;;;10438488;28;20296;-79
2024/01/18 03:31:58;;;;;;;2.30;2.30;;;9.60;99.90;;;;;;10458368;28;20197;-79
2024/01/18 03:37:01;;;;;;;1.90;1.90;;;9.50;99.90;;;;;;10436857;28;20232;-78
2024/01/18 03:42:05;;;;;;;1.73;1.73;;;9.40;99.90;;;;;;10456534;28;20189;-79
2024/01/18 03:47:07;;;;;;;1.80;1.80;;;9.30;99.90;;;;;;10436094;28;20224;-79
2024/01/18 03:52:10;;;;;;;2.03;2.03;;;9.20;99.90;;;;;;10467333;28;20577;-80
2024/01/18 03:57:13;;;;;;;2.17;2.17;;;9.10;99.90;;;;;;10406667;28;20281;-80
2024/01/18 04:02:16;;;;;;;1.97;1.97;;;9.10;99.90;;;;;;10375114;28;20203;-79
2024/01/18 04:07:18;;;;;;;2.77;2.77;;;9.00;99.90;;;;;;10375314;28;20275;-79
2024/01/18 04:12:22;;;;;;;2.63;2.63;;;8.90;99.90;;;;;;10409995;28;20268;-80
2024/01/18 04:17:24;;;;;;;2.40;2.40;;;8.90;99.90;;;;;;10396033;28;20222;-80
2024/01/18 04:22:27;;;;;;;2.00;2.00;;;8.90;99.90;;;;;;10454238;28;20647;-80
2024/01/18 04:27:31;;;;;;;2.40;2.40;;;8.90;99.90;;;;;;10455748;28;20213;-80
2024/01/18 04:32:33;;;;;;;2.63;2.63;;;8.80;99.90;;;;;;10429044;28;20272;-81
2024/01/18 04:37:35;;;;;;;2.60;2.60;;;8.70;99.90;;;;;;10388677;28;20214;-80
2024/01/18 04:42:39;;;;;;;2.53;2.53;;;8.70;99.90;;;;;;10402552;28;20608;-81
2024/01/18 04:47:42;;;;;;;2.40;2.40;;;8.60;99.90;;;;;;10372886;28;20225;-80
2024/01/18 04:52:44;;;;;;;3.03;3.03;;;8.50;99.90;;;;;;10399224;28;20221;-80
2024/01/18 04:57:49;;;;;;;2.53;2.53;;;8.40;99.90;;;;;;10386631;28;20215;-79
2024/01/18 05:02:51;;;;;;;2.60;2.60;;;8.40;99.90;;;;;;10370648;28;20225;-81
2024/01/18 05:07:53;;;;;;;2.70;2.70;;;8.40;99.90;;;;;;10463856;23;20259;-80
2024/01/18 05:12:57;;;;;;;2.37;2.37;;;8.30;99.90;;;;;;10439831;28;20247;-79
2024/01/18 05:18:00;;;;;;;3.17;3.17;;;8.30;99.90;;;;;;10468921;28;20268;-80
2024/01/18 05:23:02;;;;;;;2.50;2.50;;;8.20;99.90;;;;;;10450690;28;20251;-79
2024/01/18 05:28:06;;;;;;;2.70;2.70;;;8.20;99.90;;;;;;10469982;28;20601;-77
2024/01/18 05:33:08;;;;;;;2.70;2.70;;;8.10;99.90;;;;;;10468694;28;20225;-78
2024/01/18 05:38:11;;;;;;;3.23;3.23;;;8.10;99.90;;;;;;10449627;28;20621;-78
2024/01/18 05:43:14;;;;;;;0.70;0.70;;;8.10;99.90;;;;;;10455535;28;20189;-76
2024/01/18 05:48:17;;;;;;;3.97;3.97;;;8.00;99.90;;;;;;10471848;28;20248;-77
2024/01/18 05:53:19;;;;;;;3.00;3.00;;;8.00;99.90;;;;;;10469594;28;20224;-78
2024/01/18 05:58:23;;;;;;;3.40;3.40;;;7.90;99.90;;;;;;10463006;28;20262;-77
2024/01/18 06:03:25;;;;;;;3.47;3.47;;;7.80;99.90;;;;;;10456923;28;20197;-78
2024/01/18 06:08:28;;;;;;;2.67;2.67;;;7.80;99.90;;;;;;10467292;28;20232;-76
2024/01/18 06:13:31;;;;;;;3.37;3.37;;;7.80;99.90;;;;;;10449207;28;20426;-77
2024/01/18 06:18:34;;;;;;;4.27;4.27;;;7.60;99.90;;;;;;10462243;28;20536;-76
2024/01/18 06:23:37;;;;;;;5.67;5.67;;;7.40;99.90;;;;;;10456955;28;20243;-78
2024/01/18 06:28:40;;;;;;;5.90;5.90;;;7.10;99.90;;;;;;10456690;28;20678;-76
2024/01/18 06:33:43;;;;;;;5.73;5.73;;;6.90;99.90;;;;;;10457591;28;20705;-78
2024/01/18 06:38:45;;;;;;;6.17;6.17;;;6.70;99.90;;;;;;10454739;28;20255;-77
2024/01/18 06:43:50;;;;;;;6.20;6.20;;;6.50;99.90;;;;;;10453926;28;20208;-76
2024/01/18 06:48:53;;;;;;;5.77;5.77;;;6.50;99.90;;;;;;10455495;28;20220;-77
2024/01/18 06:53:56;;;;;;;5.10;5.10;;;6.40;99.90;;;;;;10454150;28;20650;-76
2024/01/18 06:59:01;;;;;;;5.40;5.40;;;6.30;99.90;;;;;;10444382;28;20213;-75
2024/01/18 07:04:03;;;;;;;6.57;6.57;;;6.20;99.90;;;;;;10450464;28;20189;-78
2024/01/18 07:09:06;;;;;;;5.90;5.90;;;6.20;99.90;;;;;;10455777;28;20697;-76
2024/01/18 07:14:10;;;;;;;5.50;5.50;;;6.20;99.90;;;;;;10448961;28;20224;-77
2024/01/18 07:19:12;;;;;;;4.73;4.73;;;6.10;99.90;;;;;;10438431;28;20225;-76
2024/01/18 07:24:14;;;;;;;4.50;4.50;;;6.10;99.90;;;;;;10440865;28;20201;-77
2024/01/18 07:29:18;;;;;;;4.97;4.97;;;6.10;99.90;;;;;;10453608;28;20266;-77
2024/01/18 07:34:21;;;;;;;5.77;5.77;;;6.00;99.90;;;;;;10446345;28;20714;-77
2024/01/18 07:39:23;;;;;;;5.07;5.07;;;6.00;99.90;;;;;;10434481;28;20217;-78
2024/01/18 07:44:27;;;;;;;5.30;5.30;;;6.00;99.90;;;;;;10431649;28;20216;-78
2024/01/18 07:49:30;;;;;;;5.27;5.27;;;5.90;99.90;;;;;;10455672;28;20270;-78
2024/01/18 07:54:32;;;;;;;5.50;5.50;;;5.90;99.90;;;;;;10456488;28;20221;-76
2024/01/18 07:59:36;;;;;;;5.70;5.70;;;5.90;99.90;;;;;;10473869;28;20671;-75
2024/01/18 08:04:38;;;;;;;5.20;5.20;;;5.90;99.90;;;;;;10430410;28;20701;-78
2024/01/18 08:09:41;;;;;;;5.57;5.57;;;5.90;99.90;;;;;;10470832;28;20225;-76
2024/01/18 08:14:45;;;;;;;6.00;6.00;;;5.90;99.90;;;;;;10435642;28;20251;-77
2024/01/18 08:19:47;;;;;;;5.67;5.67;;;5.90;99.90;;;;;;10474792;28;20238;-77
2024/01/18 08:24:50;;;;;;;5.57;5.57;;;5.80;99.90;;;;;;10459702;28;20264;-78
2024/01/18 08:29:53;;;;;;;5.00;5.00;;;5.80;99.90;;;;;;10442215;28;20201;-78
2024/01/18 08:34:56;;;;;;;4.90;4.90;;;5.80;99.90;;;;;;10478039;28;20216;-77
2024/01/18 08:39:58;;;;;;;5.50;5.50;;;5.70;99.90;;;;;;10462128;28;20204;-74
2024/01/18 08:45:02;;;;;;;4.47;4.47;;;5.70;99.90;;;;;;10477039;28;20246;-77
2024/01/18 08:50:05;;;;;;;5.20;5.20;;;5.60;99.90;;;;;;10466397;28;20537;-76
2024/01/18 08:55:08;;;;;;;4.30;4.30;;;5.50;99.90;;;;;;10476481;28;20220;-76
2024/01/18 09:00:17;;;;;;;4.10;4.10;;;5.40;99.90;;;;;;10485430;28;20250;-78
2024/01/18 09:05:20;;;;;;;4.80;4.80;;;5.40;99.90;;;;;;10468966;28;20221;-79
2024/01/18 09:10:23;;;;;;;3.70;3.70;;;5.30;99.90;;;;;;10483650;28;20211;-79
2024/01/18 09:15:26;;;;;;;4.73;4.73;;;5.30;99.90;;;;;;10480561;28;20239;-78
2024/01/18 09:20:29;;;;;;;4.57;4.57;;;5.20;99.90;;;;;;10485656;28;20575;-76
2024/01/18 09:25:31;;;;;;;4.63;4.63;;;5.10;99.90;;;;;;10461783;28;20225;-78
2024/01/18 09:30:35;;;;;;;3.63;3.63;;;5.10;99.90;;;;;;10465276;28;20201;-76
2024/01/18 09:35:40;;;;;;;4.63;4.63;;;5.00;99.90;;;;;;10448350;28;20224;-76
2024/01/18 09:40:42;;;;;;;4.43;4.43;;;4.90;99.90;;;;;;10480765;28;20205;-77
2024/01/18 09:45:47;;;;;;;4.33;4.33;;;5.00;99.90;;;;;;10484894;28;20204;-78
2024/01/18 09:50:51;;;;;;;3.20;3.20;;;4.90;99.90;;;;;;10485659;28;20204;-78
2024/01/18 09:55:55;;;;;;;3.97;3.97;;;4.90;99.90;;;;;;10483566;28;20751;-77
2024/01/18 10:01:00;;;;;;;3.87;3.87;;;4.80;99.90;;;;;;10483665;28;20208;-78
2024/01/18 10:06:02;;;;;;;4.40;4.40;;;4.70;99.90;;;;;;10482805;28;20231;-77
2024/01/18 10:11:05;;;;;;;3.40;3.40;;;4.70;99.90;;;;;;10459591;28;20204;-78
2024/01/18 10:16:10;;;;;;;3.57;3.57;;;4.70;99.90;;;;;;10476414;28;20605;-78
2024/01/18 10:21:12;;;;;;;3.40;3.40;;;4.60;99.90;;;;;;10480814;28;20199;-78
2024/01/18 10:26:15;;;;;;;3.70;3.70;;;4.60;99.90;;;;;;10479265;28;20266;-78
2024/01/18 10:31:19;;;;;;;4.07;4.07;;;4.50;99.90;;;;;;10480382;28;20192;-78
2024/01/18 10:36:22;;;;;;;3.10;3.10;;;4.50;99.90;;;;;;10478221;28;20273;-77
2024/01/18 10:41:24;;;;;;;3.30;3.30;;;4.40;99.90;;;;;;10476330;28;20197;-79
2024/01/18 10:46:29;;;;;;;4.10;4.10;;;4.40;99.90;;;;;;10457429;28;20232;-77
2024/01/18 10:51:31;;;;;;;4.40;4.40;;;4.40;99.90;;;;;;10475247;28;20204;-77
2024/01/18 10:56:34;;;;;;;2.00;2.00;;;4.40;99.90;;;;;;10434456;28;20279;-78
2024/01/18 11:01:38;;;;;;;3.00;3.00;;;4.40;99.90;;;;;;10473791;28;20200;-77
2024/01/18 11:06:44;;;;;;;3.67;3.67;;;4.30;99.90;;;;;;10473504;28;20220;-78
2024/01/18 11:11:47;;;;;;;3.37;3.37;;;4.30;99.90;;;;;;10473246;28;20278;-78
2024/01/18 11:16:51;;;;;;;3.67;3.67;;;4.30;99.90;;;;;;10452362;28;20243;-81
2024/01/18 11:21:53;;;;;;;4.30;4.30;;;4.30;99.90;;;;;;10446577;28;20213;-76
2024/01/18 11:26:57;;;;;;;3.67;3.67;;;4.30;99.90;;;;;;10471270;28;20594;-78
2024/01/18 11:32:01;;;;;;;3.60;3.60;;;4.30;99.90;;;;;;10473804;28;20192;-80
2024/01/18 11:37:11;;;;;;;3.90;3.90;;;4.20;99.90;;;;;;10459598;28;20221;-76
2024/01/18 11:42:16;;;;;;;3.93;3.93;;;4.10;99.90;;;;;;10453151;28;20193;-78
2024/01/18 11:47:20;;;;;;;1.63;1.63;;;4.00;99.90;;;;;;10440778;28;20217;-77
2024/01/18 11:52:23;;;;;;;4.03;4.03;;;4.00;99.90;;;;;;10419332;28;20250;-78
2024/01/18 11:57:26;;;;;;;4.30;4.30;;;4.00;99.90;;;;;;10417654;28;20290;-78
2024/01/18 12:02:30;;;;;;;4.20;4.20;;;3.90;99.90;;;;;;10469294;28;20200;-77
2024/01/18 12:07:33;;;;;;;4.73;4.73;;;4.00;99.90;;;;;;10468655;28;20228;-77
2024/01/18 12:12:36;;;;;;;4.30;4.30;;;3.90;99.90;;;;;;10468831;28;20204;-80
2024/01/18 12:17:40;;;;;;;4.57;4.57;;;3.90;99.90;;;;;;10467533;28;20224;-78
2024/01/18 12:22:43;;;;;;;3.87;3.87;;;3.90;99.90;;;;;;10469237;28;20201;-77
2024/01/18 12:27:46;;;;;;;3.73;3.73;;;3.80;99.90;;;;;;10471324;28;20220;-79
2024/01/18 12:32:50;;;;;;;4.77;4.77;;;3.80;99.90;;;;;;10467141;28;20711;-81
2024/01/18 12:37:53;;;;;;;3.50;3.50;;;3.70;99.90;;;;;;10454104;28;20224;-78
2024/01/18 12:43:02;;;;;;;4.10;4.10;;;3.70;99.90;;;;;;10474375;28;20185;-79
2024/01/18 12:48:06;;;;;;;2.30;2.30;;;3.60;99.90;;;;;;10472658;28;20216;-78
2024/01/18 12:53:08;;;;;;;2.87;2.87;;;3.60;99.90;;;;;;10470605;28;20227;-76
2024/01/18 12:58:13;;;;;;;1.83;1.83;;;3.50;99.90;;;;;;10471323;28;20706;-78
2024/01/18 13:03:17;;;;;;;3.47;3.47;;;3.60;99.90;;;;;;10436763;28;20205;-77
2024/01/18 13:08:20;;;;;;;2.50;2.50;;;3.50;99.90;;;;;;10469142;28;20752;-78
2024/01/18 13:13:23;;;;;;;4.00;4.00;;;3.50;99.90;;;;;;10470533;28;20209;-79
2024/01/18 13:18:28;;;;;;;3.50;3.50;;;3.50;99.90;;;;;;10450153;28;20221;-79
2024/01/18 13:23:30;;;;;;;2.83;2.83;;;3.40;99.90;;;;;;10416002;28;20581;-78
2024/01/18 13:28:33;;;;;;;1.90;1.90;;;3.40;99.90;;;;;;10428697;28;20270;-77
2024/01/18 13:33:37;;;;;;;2.60;2.60;;;3.40;99.90;;;;;;10451643;28;20225;-78
2024/01/18 13:38:40;;;;;;;1.30;1.30;;;3.30;99.90;;;;;;10469347;28;20224;-80
2024/01/18 13:43:43;;;;;;;2.20;2.20;;;3.30;99.90;;;;;;10449232;28;20181;-77
2024/01/18 13:48:46;;;;;;;3.70;3.70;;;3.30;99.90;;;;;;10453178;28;20253;-78
2024/01/18 13:53:50;;;;;;;2.90;2.90;;;3.20;99.90;;;;;;10480283;28;20213;-78
2024/01/18 13:58:52;;;;;;;2.50;2.50;;;3.20;99.90;;;;;;10464177;28;20217;-77
2024/01/18 14:03:56;;;;;;;2.27;2.27;;;3.30;99.90;;;;;;10465025;28;20570;-78
2024/01/18 14:08:58;;;;;;;2.80;2.80;;;3.20;99.90;;;;;;10464757;28;20225;-77
2024/01/18 14:14:01;;;;;;;1.93;1.93;;;3.20;99.90;;;;;;10453071;28;20209;-77
2024/01/18 14:19:05;;;;;;;2.63;2.63;;;3.10;99.90;;;;;;10453491;28;20209;-79
2024/01/18 14:24:07;;;;;;;3.07;3.07;;;3.10;99.90;;;;;;10453299;28;20736;-79
2024/01/18 14:29:11;;;;;;;2.60;2.60;;;3.10;99.90;;;;;;10452451;28;20282;-78
2024/01/18 14:34:14;;;;;;;2.43;2.43;;;3.20;99.90;;;;;;10452399;28;20296;-77
2024/01/18 14:39:17;;;;;;;3.30;3.30;;;3.20;99.90;;;;;;10451747;28;20205;-78
2024/01/18 14:44:19;;;;;;;3.17;3.17;;;3.20;99.90;;;;;;10451831;28;20669;-76
2024/01/18 14:49:23;;;;;;;2.70;2.70;;;3.20;99.90;;;;;;10450692;28;20578;-77
2024/01/18 14:54:25;;;;;;;3.30;3.30;;;3.20;99.90;;;;;;10445820;28;20213;-77
2024/01/18 14:59:28;;;;;;;2.60;2.60;;;3.20;99.90;;;;;;10456914;28;20225;-78
2024/01/18 15:04:32;;;;;;;2.60;2.60;;;3.20;99.90;;;;;;10437532;28;20255;-79
2024/01/18 15:09:35;;;;;;;1.67;1.67;;;3.20;99.90;;;;;;10456444;28;20225;-78
2024/01/18 15:14:38;;;;;;;2.90;2.90;;;3.20;99.90;;;;;;10454360;28;20271;-78
2024/01/18 15:19:42;;;;;;;2.67;2.67;;;3.20;99.90;;;;;;10443653;28;20232;-78
2024/01/18 15:24:44;;;;;;;2.50;2.50;;;3.20;99.90;;;;;;10447997;28;20706;-78
2024/01/18 15:29:46;;;;;;;2.77;2.77;;;3.10;99.90;;;;;;10445875;28;20197;-78
2024/01/18 15:34:50;;;;;;;0.93;0.93;;;3.20;99.90;;;;;;10449403;28;20252;-78
2024/01/18 15:39:53;;;;;;;1.07;1.07;;;3.10;99.90;;;;;;10457176;28;20201;-79
2024/01/18 15:44:55;;;;;;;2.50;2.50;;;3.10;99.90;;;;;;10451410;28;20682;-76
2024/01/18 15:49:59;;;;;;;1.80;1.80;;;3.10;99.90;;;;;;10450624;28;20239;-76
2024/01/18 15:55:01;;;;;;;2.30;2.30;;;3.10;99.90;;;;;;10437765;28;20225;-78
2024/01/18 16:00:05;;;;;;;2.20;2.20;;;3.20;99.90;;;;;;10428159;28;20200;-78
2024/01/18 16:05:10;;;;;;;1.90;1.90;;;3.20;99.90;;;;;;10420938;28;20747;-78
2024/01/18 16:10:12;;;;;;;2.07;2.07;;;3.20;99.90;;;;;;10428925;28;20189;-77
2024/01/18 16:15:14;;;;;;;0.50;0.50;;;3.20;99.90;;;;;;10433800;28;20220;-76
2024/01/18 16:20:18;;;;;;;0.93;0.93;;;3.30;99.90;;;;;;10445611;28;20209;-77
2024/01/18 16:25:20;;;;;;;1.77;1.77;;;3.30;99.90;;;;;;10445218;28;20224;-77
2024/01/18 16:30:23;;;;;;;1.30;1.30;;;3.30;99.90;;;;;;10457770;28;20732;-78
2024/01/18 16:35:29;;;;;;;1.13;1.13;;;3.30;99.90;;;;;;10489683;28;20270;-79
2024/01/18 16:40:32;;;;;;;2.07;2.07;;;3.30;99.90;;;;;;10490276;28;20513;-78
2024/01/18 16:45:34;;;;;;;1.80;1.80;;;3.40;99.90;;;;;;10488397;28;20220;-79
2024/01/18 16:50:38;;;;;;;1.73;1.73;;;3.40;99.90;;;;;;10470365;28;20278;-79
2024/01/18 16:55:40;;;;;;;1.07;1.07;;;3.40;99.90;;;;;;10469316;28;20585;-78
2024/01/18 17:00:43;;;;;;;1.43;1.43;;;3.50;99.90;;;;;;10487827;28;20214;-78
2024/01/18 17:05:46;;;;;;;0.50;0.50;;;3.50;99.90;;;;;;10486448;28;20212;-79
2024/01/18 17:10:49;;;;;;;1.30;1.30;;;3.50;99.90;;;;;;10486972;28;20197;-77
2024/01/18 17:15:52;;;;;;;1.57;1.57;;;3.50;99.90;;;;;;10455519;28;20213;-76
2024/01/18 17:20:55;;;;;;;0.37;0.37;;;3.50;99.90;;;;;;10505955;22;20236;-79
2024/01/18 17:25:58;;;;;;;1.30;1.30;;;3.50;99.90;;;;;;10486880;28;20192;-77
2024/01/18 17:31:00;;;;;;;1.20;1.20;;;3.50;99.90;;;;;;10497860;28;20772;-80
2024/01/18 17:36:04;;;;;;;1.27;1.27;;;3.50;99.90;;;;;;10497341;28;20285;-78
2024/01/18 17:41:07;;;;;;;1.20;1.20;;;3.50;99.90;;;;;;10506359;28;20223;-81
2024/01/18 17:46:10;;;;;;;0.80;0.80;;;3.40;99.90;;;;;;10482761;28;20196;-78
2024/01/18 17:51:13;;;;;;;1.10;1.10;;;3.50;99.90;;;;;;10466680;28;20213;-79
2024/01/18 17:56:16;;;;;;;0.67;0.67;;;3.50;99.90;;;;;;10484170;28;20207;-78
2024/01/18 18:01:18;;;;;;;1.10;1.10;;;3.40;99.90;;;;;;10536773;28;20246;-80
2024/01/18 18:06:22;;;;;;;1.10;1.10;;;3.40;99.90;;;;;;10500105;28;20221;-77
2024/01/18 18:11:25;;;;;;;1.07;1.07;;;3.40;99.90;;;;;;10485930;28;20749;-78
2024/01/18 18:16:27;;;;;;;1.07;1.07;;;3.40;99.90;;;;;;10490500;28;20716;-79
2024/01/18 18:21:31;;;;;;;1.17;1.17;;;3.40;99.90;;;;;;10491966;28;20193;-79
2024/01/18 18:26:33;;;;;;;1.10;1.10;;;3.40;99.90;;;;;;10475198;28;20200;-78
2024/01/18 18:31:36;;;;;;;0.40;0.40;;;3.40;99.90;;;;;;10513733;28;20632;-79
2024/01/18 18:36:39;;;;;;;1.27;1.27;;;3.40;99.90;;;;;;10472914;28;20247;-79
2024/01/18 18:41:42;;;;;;;1.23;1.23;;;3.40;99.90;;;;;;10487080;28;20196;-77
2024/01/18 18:46:44;;;;;;;0.60;0.60;;;3.40;99.90;;;;;;10472088;28;20228;-76
2024/01/18 18:51:48;;;;;;;1.00;1.00;;;3.30;99.90;;;;;;10496282;28;20607;-78
2024/01/18 18:56:50;;;;;;;1.17;1.17;;;3.20;99.90;;;;;;10490343;28;20240;-77
2024/01/18 19:01:53;;;;;;;1.30;1.30;;;3.20;99.90;;;;;;10487726;28;20760;-76
2024/01/18 19:06:57;;;;;;;1.20;1.20;;;3.10;99.90;;;;;;10492173;28;20279;-77
2024/01/18 19:11:59;;;;;;;0.97;0.97;;;3.00;99.90;;;;;;10467938;28;20224;-78
2024/01/18 19:17:01;;;;;;;0.80;0.80;;;3.00;99.90;;;;;;10487765;28;20224;-79
2024/01/18 19:22:05;;;;;;;1.03;1.03;;;2.90;99.90;;;;;;10495990;28;20634;-79
2024/01/18 19:27:08;;;;;;;1.00;1.00;;;2.80;99.90;;;;;;10498536;28;20229;-79
2024/01/18 19:32:10;;;;;;;1.30;1.30;;;2.80;99.90;;;;;;10495760;28;20204;-79
2024/01/18 19:37:14;;;;;;;0.93;0.93;;;2.70;99.90;;;;;;10500874;28;20220;-80
2024/01/18 19:42:17;;;;;;;1.00;1.00;;;2.80;99.90;;;;;;10492064;28;20254;-79
2024/01/18 19:47:20;;;;;;;1.00;1.00;;;2.70;99.90;;;;;;10497034;28;20216;-79
2024/01/18 19:52:23;;;;;;;0.90;0.90;;;2.70;99.90;;;;;;10508792;28;20197;-79
2024/01/18 19:57:26;;;;;;;1.27;1.27;;;2.70;99.90;;;;;;10507445;28;20269;-79
2024/01/18 20:02:28;;;;;;;1.30;1.30;;;2.70;99.90;;;;;;10490234;28;20196;-79
2024/01/18 20:07:33;;;;;;;0.80;0.80;;;2.70;99.90;;;;;;10494833;28;20725;-79
2024/01/18 20:12:36;;;;;;;0.53;0.53;;;2.70;99.90;;;;;;10495527;28;20211;-79
2024/01/18 20:17:38;;;;;;;1.23;1.23;;;2.80;99.90;;;;;;10496140;28;20232;-79
2024/01/18 20:22:42;;;;;;;1.27;1.27;;;2.80;99.90;;;;;;10469233;28;20208;-79
2024/01/18 20:27:45;;;;;;;1.00;1.00;;;2.80;99.90;;;;;;10482091;28;20624;-79
2024/01/18 20:32:47;;;;;;;1.00;1.00;;;2.80;99.90;;;;;;10494310;28;20195;-77
2024/01/18 20:37:51;;;;;;;0.60;0.60;;;2.80;99.90;;;;;;10504490;28;20228;-79
2024/01/18 20:42:54;;;;;;;0.80;0.80;;;2.70;99.90;;;;;;10491299;28;20208;-79
2024/01/18 20:47:56;;;;;;;0.70;0.70;;;2.70;99.90;;;;;;10477585;28;20263;-79
2024/01/18 20:53:00;;;;;;;1.20;1.20;;;2.70;99.90;;;;;;10498167;28;20205;-78
2024/01/18 20:58:02;;;;;;;1.10;1.10;;;2.80;99.90;;;;;;10502430;28;20255;-78
2024/01/18 21:03:06;;;;;;;0.90;0.90;;;2.70;99.90;;;;;;10497120;28;20685;-78
2024/01/18 21:08:10;;;;;;;1.10;1.10;;;2.70;99.90;;;;;;10488928;28;20228;-77
2024/01/18 21:13:13;;;;;;;0.90;0.90;;;2.70;99.90;;;;;;10461884;28;20270;-79
2024/01/18 21:18:15;;;;;;;1.00;1.00;;;2.70;99.90;;;;;;10489851;28;20717;-79
2024/01/18 21:23:20;;;;;;;0.97;0.97;;;2.60;99.90;;;;;;10483969;28;20212;-79
2024/01/18 21:28:22;;;;;;;1.03;1.03;;;2.50;99.90;;;;;;10488029;28;20429;-79
2024/01/18 21:33:24;;;;;;;0.60;0.60;;;2.50;99.90;;;;;;10499639;28;20619;-79
2024/01/18 21:38:28;;;;;;;0.60;0.60;;;2.40;99.90;;;;;;10498239;28;20610;-79
2024/01/18 21:43:30;;;;;;;0.70;0.70;;;2.50;99.90;;;;;;10498584;28;20200;-79
2024/01/18 21:48:33;;;;;;;0.90;0.90;;;2.40;99.90;;;;;;10498667;28;20243;-79
2024/01/18 21:53:36;;;;;;;0.90;0.90;;;2.50;99.90;;;;;;10496108;28;20212;-79
2024/01/18 21:58:39;;;;;;;0.70;0.70;;;2.50;99.90;;;;;;10491443;28;20228;-78
2024/01/18 22:03:43;;;;;;;0.70;0.70;;;2.60;99.90;;;;;;10493843;28;20203;-79
2024/01/18 22:08:47;;;;;;;0.70;0.70;;;2.50;99.90;;;;;;10496428;28;20204;-79
2024/01/18 22:13:49;;;;;;;0.60;0.60;;;2.60;99.90;;;;;;10498707;28;20203;-79
2024/01/18 22:18:51;;;;;;;0.60;0.60;;;2.50;99.90;;;;;;10486983;28;20220;-80
2024/01/18 22:23:55;;;;;;;0.70;0.70;;;2.60;99.90;;;;;;10495886;28;20212;-80
2024/01/18 22:28:58;;;;;;;0.60;0.60;;;2.70;99.90;;;;;;10504354;28;20605;-80
2024/01/18 22:34:00;;;;;;;0.80;0.80;;;2.70;99.90;;;;;;10502789;28;20262;-81
2024/01/18 22:39:05;;;;;;;0.50;0.50;;;2.70;99.90;;;;;;10503283;28;20224;-79
2024/01/18 22:44:07;;;;;;;0.60;0.60;;;2.80;99.90;;;;;;10496046;28;20204;-79
2024/01/18 22:49:09;;;;;;;0.73;0.73;;;2.80;99.90;;;;;;10475176;28;20223;-79
2024/01/18 22:54:13;;;;;;;0.60;0.60;;;2.80;99.90;;;;;;10488896;28;20617;-80
2024/01/18 22:59:15;;;;;;;0.83;0.83;;;2.80;99.90;;;;;;10465327;28;20216;-77
2024/01/18 23:04:18;;;;;;;0.50;0.50;;;2.80;99.90;;;;;;10493963;28;20536;-77
2024/01/18 23:09:22;;;;;;;0.60;0.60;;;2.90;99.90;;;;;;10495894;28;20215;-79
2024/01/18 23:14:24;;;;;;;0.90;0.90;;;2.90;99.90;;;;;;10485848;28;20258;-78
2024/01/18 23:19:26;;;;;;;0.70;0.70;;;2.90;99.90;;;;;;10491381;28;20231;-78
2024/01/18 23:24:30;;;;;;;0.70;0.70;;;2.90;99.90;;;;;;10489953;28;20621;-77
2024/01/18 23:29:32;;;;;;;0.50;0.50;;;2.90;99.90;;;;;;10491936;28;20294;-79
2024/01/18 23:34:35;;;;;;;0.50;0.50;;;2.90;99.90;;;;;;10490314;28;20204;-78
2024/01/18 23:39:39;;;;;;;0.67;0.67;;;3.00;99.90;;;;;;10486426;28;20231;-79
2024/01/18 23:44:42;;;;;;;0.50;0.50;;;2.90;99.90;;;;;;10488144;28;20208;-79
2024/01/18 23:49:44;;;;;;;0.63;0.63;;;2.90;99.90;;;;;;10463592;28;20220;-78
2024/01/18 23:54:48;;;;;;;0.67;0.67;;;2.90;99.90;;;;;;10489648;28;20201;-78
2024/01/18 23:59:50;;;;;;;0.60;0.60;;;2.90;99.90;;;;;;10472083;28;20251;-79
